Time;durP1;ratioP1;P1;durP2;ratioP2;P2;SDS_P1;SDS_P2;PMS_P1;PMS_P2;Temp;Humidity;BMP_temperature;BMP_pressure;BME280_temperature;BME280_humidity;BME280_pressure;Samples;Min_cycle;Max_cycle;Signal;HPM_P1;HPM_P2
2022/09/28 00:00:40;;;;;;;11.95;8.77;;;10.70;99.90;;;;;;5037693;28;20045;-90
2022/09/28 00:03:07;;;;;;;11.35;8.77;;;10.70;99.90;;;;;;5038262;28;20033;-91
2022/09/28 00:05:33;;;;;;;12.57;9.48;;;10.70;99.90;;;;;;5054860;28;20032;-91
2022/09/28 00:07:59;;;;;;;12.07;8.77;;;10.70;99.90;;;;;;5064579;28;20025;-90
2022/09/28 00:10:25;;;;;;;11.55;8.27;;;10.70;99.90;;;;;;5065636;28;20060;-90
2022/09/28 00:12:54;;;;;;;10.20;7.82;;;10.70;99.90;;;;;;5063111;28;20025;-91
2022/09/28 00:15:20;;;;;;;12.38;8.38;;;10.70;99.90;;;;;;5061652;28;20048;-91
2022/09/28 00:17:46;;;;;;;10.73;8.73;;;10.70;99.90;;;;;;5072774;28;20031;-90
2022/09/28 00:20:12;;;;;;;13.75;8.32;;;10.70;99.90;;;;;;5062638;28;20108;-91
2022/09/28 00:22:38;;;;;;;12.55;8.38;;;10.70;99.90;;;;;;5057394;28;20029;-91
2022/09/28 00:25:05;;;;;;;11.88;8.60;;;10.70;99.90;;;;;;5054091;28;20108;-90
2022/09/28 00:27:31;;;;;;;10.35;8.18;;;10.70;99.90;;;;;;5054936;28;20079;-90
2022/09/28 00:29:57;;;;;;;11.65;8.18;;;10.70;99.90;;;;;;5054796;28;20021;-90
2022/09/28 00:32:23;;;;;;;11.27;8.48;;;10.70;99.90;;;;;;5037320;28;20021;-90
2022/09/28 00:34:50;;;;;;;13.65;9.73;;;10.70;99.90;;;;;;5053852;28;20056;-90
2022/09/28 00:37:17;;;;;;;13.20;9.20;;;10.70;99.90;;;;;;5053882;28;20025;-90
2022/09/28 00:39:44;;;;;;;13.68;10.07;;;10.70;99.90;;;;;;5037394;28;20358;-91
2022/09/28 00:42:22;;;;;;;14.68;10.13;;;10.70;99.90;;;;;;5053957;28;20100;-91
2022/09/28 00:44:49;;;;;;;15.60;9.93;;;10.70;99.90;;;;;;5053547;28;20032;-91
2022/09/28 00:47:34;;;;;;;14.05;9.93;;;10.60;99.90;;;;;;5037484;28;20039;-91
2022/09/28 00:50:15;;;;;;;11.50;9.20;;;10.60;99.90;;;;;;5054772;28;20027;-91
2022/09/28 00:52:47;;;;;;;12.13;10.23;;;10.60;99.90;;;;;;5053575;28;20025;-90
2022/09/28 00:55:16;;;;;;;14.85;10.75;;;10.60;99.90;;;;;;5053737;28;20032;-90
2022/09/28 00:57:48;;;;;;;11.52;9.73;;;10.60;99.90;;;;;;5053252;28;20023;-90
2022/09/28 01:00:14;;;;;;;13.32;10.05;;;10.60;99.90;;;;;;5053609;28;20111;-90
2022/09/28 01:02:41;;;;;;;15.23;10.27;;;10.60;99.90;;;;;;5036753;28;20039;-90
2022/09/28 01:05:09;;;;;;;14.68;10.25;;;10.60;99.90;;;;;;5036961;28;20033;-91
2022/09/28 01:07:36;;;;;;;17.38;10.90;;;10.50;99.90;;;;;;5053687;28;20027;-91
2022/09/28 01:10:03;;;;;;;15.70;11.00;;;10.50;99.90;;;;;;5036870;28;20468;-91
2022/09/28 01:12:28;;;;;;;13.80;10.38;;;10.50;99.90;;;;;;5036916;28;20060;-90
2022/09/28 01:14:56;;;;;;;14.55;10.98;;;10.50;99.90;;;;;;5036922;28;20030;-90
2022/09/28 01:17:29;;;;;;;15.68;11.73;;;10.50;99.90;;;;;;5054246;28;20025;-90
2022/09/28 01:20:04;;;;;;;16.17;11.18;;;10.50;99.90;;;;;;5052797;28;20025;-91
2022/09/28 01:22:56;;;;;;;15.20;10.68;;;10.50;99.90;;;;;;5053277;28;20025;-91
2022/09/28 01:25:43;;;;;;;15.38;11.63;;;10.50;99.90;;;;;;5053145;28;20079;-91
2022/09/28 01:28:15;;;;;;;15.77;10.10;;;10.40;99.90;;;;;;5053228;28;20029;-91
2022/09/28 01:30:58;;;;;;;14.48;10.27;;;10.40;99.90;;;;;;5054280;28;20060;-92
2022/09/28 01:33:30;;;;;;;11.38;9.48;;;10.40;99.90;;;;;;5053201;28;20029;-91
2022/09/28 01:36:05;;;;;;;13.38;10.00;;;10.40;99.90;;;;;;5053023;28;20021;-91
2022/09/28 01:38:41;;;;;;;13.15;9.73;;;10.40;99.90;;;;;;5053189;28;20037;-91
2022/09/28 01:41:08;;;;;;;15.55;10.40;;;10.40;99.90;;;;;;5053142;28;20025;-91
2022/09/28 01:43:39;;;;;;;12.10;9.45;;;10.40;99.90;;;;;;5036528;28;20025;-91
2022/09/28 01:46:16;;;;;;;11.38;9.32;;;10.40;99.90;;;;;;5053135;28;20032;-91
2022/09/28 01:48:58;;;;;;;12.07;9.07;;;10.40;99.90;;;;;;5053086;28;20048;-93
2022/09/28 01:51:45;;;;;;;16.23;9.68;;;10.40;99.90;;;;;;5058970;28;20029;-91
2022/09/28 01:54:20;;;;;;;11.85;9.25;;;10.40;99.90;;;;;;5056578;28;20472;-90
2022/09/28 01:57:10;;;;;;;11.77;9.18;;;10.40;99.90;;;;;;5056700;28;20021;-90
2022/09/28 01:59:39;;;;;;;11.00;9.15;;;10.40;99.90;;;;;;5036069;28;20033;-90
2022/09/28 02:02:17;;;;;;;13.85;9.13;;;10.40;99.90;;;;;;5057294;28;20053;-91
2022/09/28 02:05:12;;;;;;;14.02;9.95;;;10.40;99.90;;;;;;5056784;28;20021;-91
2022/09/28 02:07:46;;;;;;;13.07;9.23;;;10.40;99.90;;;;;;5056484;28;20071;-91
2022/09/28 02:10:24;;;;;;;13.73;9.38;;;10.40;99.90;;;;;;5056506;28;20093;-90
2022/09/28 02:12:53;;;;;;;13.35;9.20;;;10.40;99.90;;;;;;5056561;28;20040;-90
2022/09/28 02:15:48;;;;;;;13.00;9.13;;;10.40;99.90;;;;;;5056646;28;20067;-90
2022/09/28 02:18:14;;;;;;;11.73;8.85;;;10.30;99.90;;;;;;5037339;28;20474;-90
2022/09/28 02:20:46;;;;;;;14.07;9.70;;;10.30;99.90;;;;;;5039710;28;20040;-91
2022/09/28 02:23:12;;;;;;;12.25;9.18;;;10.30;99.90;;;;;;5056491;28;20043;-91
2022/09/28 02:25:49;;;;;;;11.00;8.82;;;10.30;99.90;;;;;;5039618;28;20453;-91
2022/09/28 02:28:14;;;;;;;13.75;10.00;;;10.40;99.90;;;;;;5056058;28;20028;-91
2022/09/28 02:30:42;;;;;;;10.65;8.45;;;10.30;99.90;;;;;;5039652;28;20037;-90
2022/09/28 02:33:11;;;;;;;11.68;8.98;;;10.30;99.90;;;;;;5039526;28;20029;-90
2022/09/28 02:35:39;;;;;;;12.20;9.63;;;10.30;99.90;;;;;;5057489;28;20024;-91
2022/09/28 02:38:04;;;;;;;15.35;9.52;;;10.30;99.90;;;;;;5055898;28;20017;-90
2022/09/28 02:40:32;;;;;;;11.95;9.02;;;10.30;99.90;;;;;;5039310;28;20083;-90
2022/09/28 02:43:08;;;;;;;12.55;9.15;;;10.20;99.90;;;;;;5055692;28;20021;-90
2022/09/28 02:46:00;;;;;;;14.18;9.70;;;10.30;99.90;;;;;;5055529;28;20021;-90
2022/09/28 02:48:57;;;;;;;13.20;9.15;;;10.30;99.90;;;;;;5055793;28;20031;-91
2022/09/28 02:51:53;;;;;;;12.32;9.55;;;10.30;99.90;;;;;;5055562;28;20119;-91
2022/09/28 02:54:37;;;;;;;14.18;9.80;;;10.30;99.90;;;;;;5055972;28;20040;-90
2022/09/28 02:57:21;;;;;;;12.40;9.48;;;10.20;99.90;;;;;;5055554;28;20025;-90
2022/09/28 03:00:15;;;;;;;12.35;8.77;;;10.20;99.90;;;;;;5055690;28;20036;-91
2022/09/28 03:03:19;;;;;;;13.63;9.75;;;10.20;99.90;;;;;;5055367;28;20556;-90
2022/09/28 03:06:06;;;;;;;14.50;9.88;;;10.20;99.90;;;;;;5055594;28;20139;-90
2022/09/28 03:08:56;;;;;;;15.55;10.07;;;10.20;99.90;;;;;;5056197;28;20065;-90
2022/09/28 03:11:29;;;;;;;14.13;10.30;;;10.20;99.90;;;;;;5054605;28;20036;-90
2022/09/28 03:13:55;;;;;;;13.25;9.52;;;10.20;99.90;;;;;;5055299;28;20029;-90
2022/09/28 03:16:21;;;;;;;14.90;9.48;;;10.20;99.90;;;;;;5056281;28;20025;-90
2022/09/28 03:18:47;;;;;;;10.70;8.90;;;10.20;99.90;;;;;;5055344;28;20021;-90
2022/09/28 03:21:14;;;;;;;10.60;9.02;;;10.20;99.90;;;;;;5038494;28;20037;-90
2022/09/28 03:23:41;;;;;;;13.07;9.68;;;10.20;99.90;;;;;;5038607;28;20068;-90
2022/09/28 03:26:09;;;;;;;10.38;8.82;;;10.20;99.90;;;;;;5055117;28;20064;-90
2022/09/28 03:28:35;;;;;;;13.70;9.30;;;10.20;99.90;;;;;;5055003;28;20070;-91
2022/09/28 03:31:01;;;;;;;12.07;9.43;;;10.20;99.90;;;;;;5038346;28;20412;-90
2022/09/28 03:33:26;;;;;;;11.25;8.60;;;10.20;99.90;;;;;;5038307;28;20076;-90
2022/09/28 03:35:52;;;;;;;10.98;9.35;;;10.30;99.90;;;;;;5054840;28;20124;-90
2022/09/28 03:38:19;;;;;;;10.52;8.68;;;10.30;99.90;;;;;;5054833;28;20029;-90
2022/09/28 03:41:00;;;;;;;11.00;8.50;;;10.30;99.90;;;;;;5057759;28;20025;-90
2022/09/28 03:43:27;;;;;;;11.90;8.85;;;10.30;99.90;;;;;;5046487;28;20061;-90
2022/09/28 03:45:57;;;;;;;11.27;8.40;;;10.30;99.90;;;;;;5063180;28;20021;-90
2022/09/28 03:48:25;;;;;;;13.75;8.50;;;10.30;99.90;;;;;;5044885;28;20048;-90
2022/09/28 03:50:54;;;;;;;11.13;8.48;;;10.30;99.90;;;;;;5061608;28;20051;-91
2022/09/28 03:53:20;;;;;;;12.60;8.60;;;10.30;99.90;;;;;;5061836;28;20033;-91
2022/09/28 03:55:46;;;;;;;10.18;8.65;;;10.30;99.90;;;;;;5057086;28;20031;-91
2022/09/28 03:58:11;;;;;;;8.88;7.40;;;10.40;99.90;;;;;;5037999;28;20056;-90
2022/09/28 04:00:37;;;;;;;13.02;8.30;;;10.40;99.90;;;;;;5037920;28;20072;-92
2022/09/28 04:03:03;;;;;;;12.70;8.13;;;10.40;99.90;;;;;;5037735;28;20021;-91
2022/09/28 04:05:29;;;;;;;9.50;7.60;;;10.40;99.90;;;;;;5037861;28;20032;-90
2022/09/28 04:07:56;;;;;;;13.38;8.07;;;10.40;99.90;;;;;;5037492;28;20040;-89
2022/09/28 04:10:22;;;;;;;12.27;7.93;;;10.40;99.90;;;;;;5055350;28;20119;-90
2022/09/28 04:12:49;;;;;;;10.65;7.60;;;10.40;99.90;;;;;;5037657;28;20129;-90
2022/09/28 04:15:15;;;;;;;9.70;7.15;;;10.40;99.90;;;;;;5054114;28;20029;-91
2022/09/28 04:17:41;;;;;;;12.90;7.88;;;10.40;99.90;;;;;;5038658;28;20479;-90
2022/09/28 04:20:07;;;;;;;10.50;7.53;;;10.40;99.90;;;;;;5037850;28;20115;-91
2022/09/28 04:22:36;;;;;;;11.70;7.47;;;10.40;99.90;;;;;;5042172;28;20071;-90
2022/09/28 04:25:02;;;;;;;9.48;6.50;;;10.40;99.90;;;;;;5038266;28;20029;-91
2022/09/28 04:30:12;;;;;;;10.15;6.63;;;10.40;99.90;;;;;;5054016;28;20082;-91
2022/09/28 04:32:38;;;;;;;11.43;7.25;;;10.40;99.90;;;;;;5037483;28;20028;-91
2022/09/28 04:35:04;;;;;;;8.80;6.63;;;10.40;99.90;;;;;;5053874;28;20078;-91
2022/09/28 04:37:30;;;;;;;9.60;6.78;;;10.40;99.90;;;;;;5053754;28;20029;-91
2022/09/28 04:39:56;;;;;;;12.02;6.15;;;10.40;99.90;;;;;;5037533;28;20086;-91
2022/09/28 04:42:21;;;;;;;10.32;5.93;;;10.40;99.90;;;;;;5037064;28;20458;-91
2022/09/28 04:44:47;;;;;;;7.40;5.70;;;10.40;99.90;;;;;;5054202;28;20040;-90
2022/09/28 04:47:12;;;;;;;8.93;5.50;;;10.40;99.90;;;;;;5036854;28;20041;-90
2022/09/28 04:49:38;;;;;;;7.65;5.72;;;10.30;99.90;;;;;;5037085;28;20079;-90
2022/09/28 04:52:05;;;;;;;10.52;5.45;;;10.30;99.90;;;;;;5036878;28;20110;-91
2022/09/28 04:54:30;;;;;;;8.10;5.97;;;10.30;99.90;;;;;;5053246;28;20037;-90
2022/09/28 04:56:57;;;;;;;10.75;6.57;;;10.30;99.90;;;;;;5037022;28;20024;-91
2022/09/28 04:59:22;;;;;;;8.93;5.90;;;10.30;99.90;;;;;;5036453;28;20021;-90
2022/09/28 05:01:55;;;;;;;8.93;6.63;;;10.30;99.90;;;;;;5036441;28;20147;-90
2022/09/28 05:04:21;;;;;;;9.15;6.00;;;10.30;99.90;;;;;;5053566;28;20052;-90
2022/09/28 05:06:47;;;;;;;8.05;6.03;;;10.30;99.90;;;;;;5053855;28;20048;-89
2022/09/28 05:09:13;;;;;;;8.05;5.45;;;10.20;99.90;;;;;;5052993;28;20053;-91
2022/09/28 05:11:39;;;;;;;9.10;5.60;;;10.20;99.90;;;;;;5037050;28;20469;-90
2022/09/28 05:14:05;;;;;;;9.05;5.55;;;10.30;99.90;;;;;;5053452;28;20059;-91
2022/09/28 05:16:34;;;;;;;9.13;6.30;;;10.30;99.90;;;;;;5054548;28;20064;-90
2022/09/28 05:19:00;;;;;;;11.85;6.45;;;10.20;99.90;;;;;;5036755;28;20029;-91
2022/09/28 05:21:26;;;;;;;10.32;5.95;;;10.20;99.90;;;;;;5036515;28;20035;-91
2022/09/28 05:23:54;;;;;;;10.55;5.82;;;10.20;99.90;;;;;;5036647;28;20033;-90
2022/09/28 05:26:21;;;;;;;9.55;5.68;;;10.20;99.90;;;;;;5053281;28;20076;-91
2022/09/28 05:28:49;;;;;;;9.85;5.82;;;10.10;99.90;;;;;;5036415;28;20017;-90
2022/09/28 05:31:15;;;;;;;8.60;5.88;;;10.20;99.90;;;;;;5040122;28;20033;-91
2022/09/28 05:33:41;;;;;;;8.38;5.60;;;10.10;99.90;;;;;;5040401;28;20040;-91
2022/09/28 05:36:12;;;;;;;6.97;5.50;;;10.10;99.90;;;;;;5056973;28;20049;-91
2022/09/28 05:38:37;;;;;;;8.60;5.75;;;10.10;99.90;;;;;;5058025;28;20118;-91
2022/09/28 05:41:03;;;;;;;7.57;5.75;;;10.10;99.90;;;;;;5040320;28;20090;-90
2022/09/28 05:43:29;;;;;;;7.38;5.82;;;10.10;99.90;;;;;;5043589;28;20060;-90
2022/09/28 05:45:55;;;;;;;8.20;5.30;;;10.10;99.90;;;;;;5040318;28;20055;-91
2022/09/28 05:48:20;;;;;;;8.63;5.47;;;10.10;99.90;;;;;;5067688;28;20041;-90
2022/09/28 05:50:51;;;;;;;7.70;5.28;;;10.00;99.90;;;;;;5040262;28;20037;-91
2022/09/28 05:53:16;;;;;;;8.55;5.13;;;10.00;99.90;;;;;;5040196;28;20079;-90
2022/09/28 05:55:42;;;;;;;9.52;5.43;;;10.00;99.90;;;;;;5056909;28;20029;-90
2022/09/28 05:58:08;;;;;;;11.00;6.05;;;10.00;99.90;;;;;;5056809;28;20028;-90
2022/09/28 06:00:35;;;;;;;8.27;5.22;;;10.00;99.90;;;;;;5039644;28;20061;-90
2022/09/28 06:03:06;;;;;;;6.85;4.68;;;10.00;99.90;;;;;;5039939;28;20041;-90
2022/09/28 06:05:34;;;;;;;6.32;4.15;;;10.00;99.90;;;;;;5056444;28;20490;-91
2022/09/28 06:08:01;;;;;;;8.10;4.13;;;10.00;99.90;;;;;;5056652;28;20487;-90
2022/09/28 06:10:27;;;;;;;7.22;4.10;;;10.00;99.90;;;;;;5039830;28;20060;-90
2022/09/28 06:12:55;;;;;;;6.57;3.88;;;9.90;99.90;;;;;;5039968;28;20110;-90
2022/09/28 06:15:24;;;;;;;6.43;3.83;;;9.90;99.90;;;;;;5039841;28;20036;-91
2022/09/28 06:18:05;;;;;;;5.43;3.53;;;9.90;99.90;;;;;;5039980;28;20056;-91
2022/09/28 06:20:33;;;;;;;6.03;3.83;;;9.90;99.90;;;;;;5056095;28;20039;-91
2022/09/28 06:22:59;;;;;;;6.88;3.92;;;9.90;99.90;;;;;;5057310;28;20256;-90
2022/09/28 06:25:26;;;;;;;8.68;3.95;;;9.80;99.90;;;;;;5039342;28;20110;-91
2022/09/28 06:28:00;;;;;;;6.80;3.60;;;9.90;99.90;;;;;;5056681;28;20473;-90
2022/09/28 06:30:27;;;;;;;4.72;3.22;;;9.90;99.90;;;;;;5056998;28;20472;-90
2022/09/28 06:32:55;;;;;;;5.82;3.42;;;9.90;99.90;;;;;;5055882;28;20021;-91
2022/09/28 06:35:22;;;;;;;3.95;3.13;;;9.90;99.90;;;;;;5055922;28;20033;-90
2022/09/28 06:37:48;;;;;;;4.63;3.20;;;9.80;99.90;;;;;;5055876;28;20047;-90
2022/09/28 06:40:13;;;;;;;5.40;3.30;;;9.90;99.90;;;;;;5056775;28;20021;-90
2022/09/28 06:42:39;;;;;;;4.80;3.45;;;9.80;99.90;;;;;;5048067;28;20044;-89
2022/09/28 06:45:05;;;;;;;6.07;3.28;;;9.80;99.90;;;;;;5070302;28;20035;-90
2022/09/28 06:47:32;;;;;;;5.78;3.40;;;9.90;99.90;;;;;;5041372;28;20063;-90
2022/09/28 06:49:58;;;;;;;5.53;3.47;;;9.90;99.90;;;;;;5040022;28;20033;-90
2022/09/28 06:52:24;;;;;;;6.20;3.72;;;9.90;99.90;;;;;;5055572;28;20072;-90
2022/09/28 06:54:50;;;;;;;4.88;3.13;;;9.90;99.90;;;;;;5039156;28;20060;-91
2022/09/28 06:57:16;;;;;;;7.07;3.55;;;9.90;99.90;;;;;;5039125;28;20040;-91
2022/09/28 06:59:42;;;;;;;4.97;3.10;;;9.90;99.90;;;;;;5055720;28;20420;-90
2022/09/28 07:02:13;;;;;;;5.15;3.30;;;9.90;99.90;;;;;;5054940;28;20057;-91
2022/09/28 07:04:41;;;;;;;4.45;2.95;;;10.00;99.90;;;;;;5039254;28;20140;-90
2022/09/28 07:07:10;;;;;;;4.50;2.78;;;10.00;99.90;;;;;;5055466;28;20028;-90
2022/09/28 07:09:36;;;;;;;4.68;3.10;;;9.90;99.90;;;;;;5038982;28;20021;-90
2022/09/28 07:12:08;;;;;;;7.45;3.35;;;10.00;99.90;;;;;;5038919;28;20040;-90
2022/09/28 07:14:34;;;;;;;8.15;3.90;;;10.00;99.90;;;;;;5043419;28;20093;-89
2022/09/28 07:17:02;;;;;;;6.78;3.25;;;10.10;99.90;;;;;;5066378;28;20059;-90
2022/09/28 07:19:27;;;;;;;3.78;2.75;;;10.10;99.90;;;;;;5050052;28;20049;-90
2022/09/28 07:21:53;;;;;;;4.30;2.72;;;10.10;99.90;;;;;;5064462;28;20052;-90
2022/09/28 07:24:19;;;;;;;3.60;2.53;;;10.10;99.90;;;;;;5044727;28;20052;-90
2022/09/28 07:26:45;;;;;;;4.15;2.70;;;10.10;99.90;;;;;;5062680;28;20385;-90
2022/09/28 07:29:12;;;;;;;4.15;2.78;;;10.20;99.90;;;;;;5062824;28;20420;-90
2022/09/28 07:31:38;;;;;;;4.97;2.85;;;10.20;99.90;;;;;;5058529;28;20040;-90
2022/09/28 07:34:04;;;;;;;3.58;2.45;;;10.20;99.90;;;;;;5056615;28;20057;-90
2022/09/28 07:36:34;;;;;;;4.50;3.10;;;10.30;99.90;;;;;;5057421;28;20496;-90
2022/09/28 07:39:00;;;;;;;6.43;2.75;;;10.30;99.90;;;;;;5059490;28;20020;-90
2022/09/28 07:41:32;;;;;;;5.00;2.45;;;10.30;99.90;;;;;;5057586;28;20148;-90
2022/09/28 07:44:04;;;;;;;5.15;2.38;;;10.40;99.90;;;;;;5056474;28;20040;-90
2022/09/28 07:46:36;;;;;;;3.58;2.30;;;10.40;99.90;;;;;;5054867;28;20469;-90
2022/09/28 07:49:05;;;;;;;6.13;2.63;;;10.40;99.90;;;;;;5054881;28;20033;-90
2022/09/28 07:51:32;;;;;;;3.72;2.25;;;10.50;99.90;;;;;;5038261;28;20101;-90
2022/09/28 07:53:58;;;;;;;3.63;2.10;;;10.50;99.90;;;;;;5038357;28;20091;-90
2022/09/28 07:56:24;;;;;;;5.57;2.33;;;10.50;99.90;;;;;;5038031;28;20033;-91
2022/09/28 07:58:50;;;;;;;4.72;2.00;;;10.60;99.90;;;;;;5038001;28;20033;-90
2022/09/28 08:01:17;;;;;;;3.75;2.15;;;10.60;99.90;;;;;;5054253;28;20048;-90
2022/09/28 08:03:44;;;;;;;6.70;2.30;;;10.60;99.90;;;;;;5037716;28;20029;-89
2022/09/28 08:06:11;;;;;;;3.78;1.80;;;10.70;99.90;;;;;;5037776;28;20025;-90
2022/09/28 08:08:42;;;;;;;3.58;2.00;;;10.70;99.90;;;;;;5037571;28;20021;-90
2022/09/28 08:11:09;;;;;;;;;;;10.70;99.90;;;;;;5054607;28;20025;-90
2022/09/28 08:13:36;;;;;;;5.50;2.03;;;10.80;99.90;;;;;;5053888;28;19915;-88
2022/09/28 08:16:02;;;;;;;4.45;1.40;;;10.90;99.90;;;;;;5054203;28;20534;-88
2022/09/28 08:18:31;;;;;;;2.67;1.92;;;10.90;99.90;;;;;;5037079;28;20512;-87
2022/09/28 08:23:41;;;;;;;2.95;1.38;;;11.00;99.90;;;;;;5054016;28;20055;-89
2022/09/28 08:26:07;;;;;;;3.25;1.73;;;11.00;99.90;;;;;;5037385;28;20021;-88
2022/09/28 08:28:34;;;;;;;5.05;1.95;;;11.10;99.90;;;;;;5054789;28;20032;-88
2022/09/28 08:31:06;;;;;;;5.32;1.90;;;11.10;99.90;;;;;;5053644;28;20063;-88
2022/09/28 08:33:32;;;;;;;5.88;1.90;;;11.20;99.90;;;;;;5037584;28;20465;-88
2022/09/28 08:35:59;;;;;;;4.05;1.92;;;11.30;99.90;;;;;;5037314;28;20025;-88
2022/09/28 08:38:26;;;;;;;3.30;1.80;;;11.40;99.90;;;;;;5053732;28;20029;-88
2022/09/28 08:41:03;;;;;;;4.90;1.98;;;11.40;99.90;;;;;;5053697;28;20070;-89
2022/09/28 08:43:59;;;;;;;3.90;1.77;;;11.50;99.90;;;;;;5053511;28;20389;-88
2022/09/28 08:46:36;;;;;;;5.03;2.20;;;11.60;99.90;;;;;;5053481;28;20469;-88
2022/09/28 08:49:22;;;;;;;8.60;2.30;;;11.70;99.90;;;;;;5053409;28;20035;-88
2022/09/28 08:52:05;;;;;;;6.60;2.13;;;11.80;99.90;;;;;;5052961;28;20045;-88
2022/09/28 08:54:40;;;;;;;6.68;2.22;;;11.80;99.90;;;;;;5052733;28;20035;-90
2022/09/28 08:57:23;;;;;;;6.43;2.50;;;11.90;99.90;;;;;;5053062;28;20424;-88
2022/09/28 08:59:52;;;;;;;4.32;2.13;;;12.00;99.90;;;;;;5052757;28;20078;-88
2022/09/28 09:02:27;;;;;;;2.35;1.70;;;12.10;99.90;;;;;;5053084;28;20056;-88
2022/09/28 09:04:54;;;;;;;4.35;2.00;;;12.20;99.90;;;;;;5052493;28;20025;-88
2022/09/28 09:07:53;;;;;;;4.50;2.50;;;12.30;99.90;;;;;;5052951;28;20033;-89
2022/09/28 09:10:37;;;;;;;2.58;1.00;;;12.40;99.90;;;;;;5054001;28;20100;-88
2022/09/28 09:13:33;;;;;;;3.28;1.85;;;12.50;99.90;;;;;;5052989;28;20028;-88
2022/09/28 09:16:18;;;;;;;1.73;1.27;;;12.60;99.90;;;;;;5053247;28;20032;-88
2022/09/28 09:19:21;;;;;;;2.55;1.77;;;12.70;99.90;;;;;;5053885;28;20025;-89
2022/09/28 09:22:00;;;;;;;5.53;1.42;;;12.80;99.90;;;;;;5053820;28;20071;-89
2022/09/28 09:24:32;;;;;;;1.00;0.77;;;12.90;99.90;;;;;;5052903;28;20111;-88
2022/09/28 09:27:10;;;;;;;1.02;0.90;;;13.00;99.90;;;;;;5054939;28;20025;-89
2022/09/28 09:30:05;;;;;;;3.70;1.00;;;13.10;99.90;;;;;;5054827;28;20021;-90
2022/09/28 09:33:04;;;;;;;0.85;0.75;;;13.20;99.90;;;;;;5054452;28;20041;-89
2022/09/28 09:35:38;;;;;;;2.67;1.45;;;13.30;99.90;;;;;;5052856;28;20053;-86
2022/09/28 09:38:21;;;;;;;2.45;1.10;;;13.40;99.90;;;;;;5052755;28;20025;-88
2022/09/28 09:41:05;;;;;;;1.33;0.75;;;13.40;99.90;;;;;;5052234;28;20033;-88
2022/09/28 09:43:40;;;;;;;1.10;0.75;;;13.50;99.90;;;;;;5052456;28;20025;-87
2022/09/28 09:46:24;;;;;;;1.00;0.82;;;13.60;99.90;;;;;;5052670;28;20021;-87
2022/09/28 09:48:55;;;;;;;0.95;0.70;;;13.70;99.90;;;;;;5052630;28;20029;-87
2022/09/28 09:51:24;;;;;;;0.88;0.68;;;13.80;99.90;;;;;;5053662;28;20033;-87
2022/09/28 09:54:04;;;;;;;1.48;0.40;;;13.80;99.90;;;;;;5052560;28;20044;-87
2022/09/28 09:56:48;;;;;;;1.08;0.57;;;13.90;99.90;;;;;;5055750;28;20032;-87
2022/09/28 09:59:20;;;;;;;3.08;0.77;;;14.00;99.90;;;;;;5053990;28;20027;-87
2022/09/28 10:01:46;;;;;;;2.05;0.70;;;14.10;99.90;;;;;;5052113;28;20041;-87
2022/09/28 10:04:22;;;;;;;0.50;0.45;;;14.20;99.90;;;;;;5036341;28;20036;-87
2022/09/28 10:06:51;;;;;;;0.30;0.30;;;14.30;99.90;;;;;;5053841;28;20026;-87
2022/09/28 10:09:29;;;;;;;1.70;0.40;;;14.40;99.90;;;;;;5052831;28;20025;-87
2022/09/28 10:11:55;;;;;;;1.10;0.50;;;14.40;99.90;;;;;;5052626;28;20112;-87
2022/09/28 10:14:24;;;;;;;1.40;0.52;;;14.50;99.90;;;;;;5052574;28;20033;-87
2022/09/28 10:16:55;;;;;;;0.47;0.40;;;14.60;99.90;;;;;;5053240;28;20033;-87
2022/09/28 10:19:30;;;;;;;1.67;0.50;;;14.70;99.90;;;;;;5055796;28;20477;-87
2022/09/28 10:21:58;;;;;;;0.63;0.50;;;14.70;99.90;;;;;;5055846;28;20025;-87
2022/09/28 10:24:31;;;;;;;0.40;0.40;;;14.80;99.90;;;;;;5039838;28;20021;-87
2022/09/28 10:27:07;;;;;;;0.35;0.35;;;14.90;99.90;;;;;;5055665;28;20084;-88
2022/09/28 10:29:54;;;;;;;0.90;0.75;;;15.00;99.90;;;;;;5056999;28;20086;-87
2022/09/28 10:32:22;;;;;;;0.30;0.20;;;15.10;99.90;;;;;;5055888;28;20036;-87
2022/09/28 10:34:50;;;;;;;0.20;0.20;;;15.10;99.90;;;;;;5055648;28;20465;-88
2022/09/28 10:37:16;;;;;;;0.55;0.50;;;15.20;99.90;;;;;;5055695;28;20082;-88
2022/09/28 10:39:54;;;;;;;0.65;0.43;;;15.30;99.90;;;;;;5039052;28;20096;-88
2022/09/28 10:42:27;;;;;;;0.28;0.28;;;15.30;99.90;;;;;;5055582;28;20041;-87
2022/09/28 10:45:04;;;;;;;1.27;0.30;;;15.40;99.90;;;;;;5055586;28;20044;-88
2022/09/28 10:47:33;;;;;;;0.77;0.32;;;15.40;99.90;;;;;;5055421;28;20423;-88
2022/09/28 10:49:59;;;;;;;2.15;0.50;;;15.50;99.90;;;;;;5055544;28;20032;-87
2022/09/28 10:52:40;;;;;;;1.45;0.20;;;15.50;99.90;;;;;;5059145;28;20029;-87
2022/09/28 10:55:24;;;;;;;0.15;0.10;;;15.50;99.90;;;;;;5059515;28;20025;-87
2022/09/28 10:57:51;;;;;;;0.68;0.20;;;15.60;99.90;;;;;;5060405;28;20029;-88
2022/09/28 11:00:40;;;;;;;1.30;0.32;;;15.60;99.90;;;;;;5058657;28;20025;-88
2022/09/28 11:03:24;;;;;;;2.42;0.30;;;15.70;99.90;;;;;;5059088;28;20025;-88
2022/09/28 11:05:56;;;;;;;0.75;0.30;;;15.80;99.90;;;;;;5059502;28;20021;-88
2022/09/28 11:08:27;;;;;;;0.35;0.10;;;15.80;99.90;;;;;;5055461;28;20060;-88
2022/09/28 11:11:09;;;;;;;;;;;15.90;99.90;;;;;;5055123;28;20120;-88
2022/09/28 11:13:43;;;;;;;1.15;0.68;;;15.90;99.90;;;;;;5054806;28;19909;-88
2022/09/28 11:16:20;;;;;;;0.30;0.28;;;16.00;99.90;;;;;;5054711;28;20018;-88
2022/09/28 11:18:45;;;;;;;0.65;0.15;;;16.00;99.90;;;;;;5054657;28;20538;-88
2022/09/28 11:21:22;;;;;;;0.65;0.38;;;16.00;99.90;;;;;;5054373;28;20025;-88
2022/09/28 11:24:16;;;;;;;0.32;0.30;;;16.10;99.90;;;;;;5055890;28;20083;-88
2022/09/28 11:26:44;;;;;;;0.20;0.20;;;16.20;99.90;;;;;;5054644;28;20017;-88
2022/09/28 11:29:45;;;;;;;0.13;0.10;;;16.20;99.90;;;;;;5054115;28;20021;-88
2022/09/28 11:32:11;;;;;;;;;;;16.30;99.90;;;;;;5052272;28;20048;-88
2022/09/28 11:34:43;;;;;;;1.45;0.20;;;16.30;99.90;;;;;;5055539;28;19909;-88
2022/09/28 11:37:15;;;;;;;0.20;0.20;;;16.40;99.90;;;;;;5054433;28;20021;-88
2022/09/28 11:39:55;;;;;;;0.20;0.20;;;16.40;99.90;;;;;;5055583;28;20029;-88
2022/09/28 11:42:42;;;;;;;0.10;0.10;;;16.40;99.90;;;;;;5054486;28;20090;-87
2022/09/28 11:45:22;;;;;;;2.00;0.50;;;16.50;99.90;;;;;;5054189;28;20065;-87
2022/09/28 11:48:00;;;;;;;0.55;0.30;;;16.50;99.90;;;;;;5054014;28;20055;-87
2022/09/28 11:50:35;;;;;;;0.25;0.10;;;16.60;99.90;;;;;;5054295;28;20044;-87
2022/09/28 11:53:14;;;;;;;0.10;0.10;;;16.70;99.90;;;;;;5053872;28;20106;-88
2022/09/28 11:55:49;;;;;;;0.25;0.25;;;16.70;99.90;;;;;;5055246;28;20017;-88
2022/09/28 11:58:23;;;;;;;0.30;0.20;;;16.80;98.20;;;;;;5053680;28;20053;-88
2022/09/28 12:01:15;;;;;;;0.45;0.28;;;16.90;99.00;;;;;;5054982;28;20485;-87
2022/09/28 12:03:47;;;;;;;0.10;0.10;;;17.00;98.80;;;;;;5049017;28;20051;-88
2022/09/28 12:06:20;;;;;;;0.75;0.20;;;17.10;99.20;;;;;;5053471;28;20469;-87
2022/09/28 12:08:54;;;;;;;0.10;0.10;;;17.20;99.20;;;;;;5053279;28;20025;-87
2022/09/28 12:11:26;;;;;;;1.08;0.30;;;17.30;99.40;;;;;;5053691;28;20472;-88
2022/09/28 12:13:55;;;;;;;0.47;0.45;;;17.40;98.80;;;;;;5054746;28;20040;-88
2022/09/28 12:16:40;;;;;;;0.55;0.20;;;17.40;96.50;;;;;;5054646;28;20047;-88
2022/09/28 12:19:22;;;;;;;0.20;0.20;;;17.50;95.40;;;;;;5053469;28;20025;-87
2022/09/28 12:21:50;;;;;;;0.10;0.10;;;17.60;97.20;;;;;;5053579;28;20021;-87
2022/09/28 12:24:22;;;;;;;1.00;0.20;;;17.70;96.60;;;;;;5057095;28;20025;-87
2022/09/28 12:27:06;;;;;;;0.32;0.28;;;17.80;96.40;;;;;;5057631;28;20021;-87
2022/09/28 12:29:46;;;;;;;0.10;0.10;;;17.90;96.80;;;;;;5053648;28;20021;-87
2022/09/28 12:32:37;;;;;;;0.20;0.20;;;18.00;96.10;;;;;;5053039;28;20025;-87
2022/09/28 12:35:11;;;;;;;0.40;0.28;;;18.00;95.30;;;;;;5053134;28;20025;-88
2022/09/28 12:37:45;;;;;;;1.00;0.40;;;17.90;95.00;;;;;;5053466;28;20025;-88
2022/09/28 12:40:17;;;;;;;0.32;0.10;;;18.00;95.20;;;;;;5052412;28;20032;-87
2022/09/28 12:43:05;;;;;;;1.95;0.50;;;18.00;95.80;;;;;;5054185;28;20465;-87
2022/09/28 12:45:56;;;;;;;1.67;0.30;;;18.00;95.60;;;;;;5053141;28;20374;-88
2022/09/28 12:48:41;;;;;;;0.10;0.10;;;18.00;96.50;;;;;;5052756;28;20021;-88
2022/09/28 12:51:27;;;;;;;0.65;0.22;;;18.10;95.60;;;;;;5054245;28;20115;-89
2022/09/28 12:54:27;;;;;;;0.88;0.28;;;18.10;92.20;;;;;;5053024;28;20036;-88
2022/09/28 12:57:28;;;;;;;0.73;0.30;;;18.10;94.10;;;;;;5054018;28;20029;-87
2022/09/28 13:00:14;;;;;;;0.30;0.13;;;18.20;93.90;;;;;;5053121;28;20025;-86
2022/09/28 13:03:06;;;;;;;1.85;0.30;;;18.20;93.90;;;;;;5054508;28;20053;-88
2022/09/28 13:05:57;;;;;;;0.30;0.30;;;18.30;94.50;;;;;;5053600;28;20045;-87
2022/09/28 13:08:54;;;;;;;0.10;0.10;;;18.40;92.60;;;;;;5052553;28;20021;-86
2022/09/28 13:11:47;;;;;;;0.10;0.10;;;18.40;92.90;;;;;;5052706;28;20135;-87
2022/09/28 13:14:12;;;;;;;0.15;0.15;;;18.50;93.60;;;;;;5052561;28;20028;-87
2022/09/28 13:16:49;;;;;;;0.50;0.30;;;18.50;94.50;;;;;;5054118;28;20036;-87